sensor_id;sensor_type;location;lat;lon;timestamp;P1;durP1;ratioP1;P2;durP2;ratioP2
12129;SDS011;6128;59.340;18.040;2023-11-21T00:02:24;2.23;;;2.03;;
12129;SDS011;6128;59.340;18.040;2023-11-21T00:04:52;1.97;;;1.87;;
12129;SDS011;6128;59.340;18.040;2023-11-21T00:07:20;2.57;;;2.37;;
12129;SDS011;6128;59.340;18.040;2023-11-21T00:09:47;1.97;;;1.87;;
12129;SDS011;6128;59.340;18.040;2023-11-21T00:12:15;2.30;;;2.10;;
12129;SDS011;6128;59.340;18.040;2023-11-21T00:14:42;2.47;;;2.27;;
12129;SDS011;6128;59.340;18.040;2023-11-21T00:17:10;1.83;;;1.73;;
12129;SDS011;6128;59.340;18.040;2023-11-21T00:19:37;2.43;;;2.23;;
12129;SDS011;6128;59.340;18.040;2023-11-21T00:22:04;2.40;;;2.20;;
12129;SDS011;6128;59.340;18.040;2023-11-21T00:24:32;2.63;;;2.30;;
12129;SDS011;6128;59.340;18.040;2023-11-21T00:26:59;2.40;;;2.20;;
12129;SDS011;6128;59.340;18.040;2023-11-21T00:29:27;2.40;;;2.20;;
12129;SDS011;6128;59.340;18.040;2023-11-21T00:31:54;2.27;;;2.10;;
12129;SDS011;6128;59.340;18.040;2023-11-21T00:34:21;2.23;;;2.10;;
12129;SDS011;6128;59.340;18.040;2023-11-21T00:36:48;1.97;;;1.87;;
12129;SDS011;6128;59.340;18.040;2023-11-21T00:39:15;2.37;;;2.23;;
12129;SDS011;6128;59.340;18.040;2023-11-21T00:41:43;2.80;;;2.60;;
12129;SDS011;6128;59.340;18.040;2023-11-21T00:44:10;2.53;;;2.30;;
12129;SDS011;6128;59.340;18.040;2023-11-21T00:46:38;2.93;;;2.27;;
12129;SDS011;6128;59.340;18.040;2023-11-21T00:49:05;3.00;;;2.43;;
12129;SDS011;6128;59.340;18.040;2023-11-21T00:51:32;2.40;;;2.23;;
12129;SDS011;6128;59.340;18.040;2023-11-21T00:54:01;2.37;;;2.17;;
12129;SDS011;6128;59.340;18.040;2023-11-21T00:56:28;2.40;;;1.97;;
12129;SDS011;6128;59.340;18.040;2023-11-21T00:58:56;2.33;;;2.23;;
12129;SDS011;6128;59.340;18.040;2023-11-21T01:01:23;2.50;;;2.30;;
12129;SDS011;6128;59.340;18.040;2023-11-21T01:03:50;2.60;;;2.23;;
12129;SDS011;6128;59.340;18.040;2023-11-21T01:06:17;2.33;;;2.17;;
12129;SDS011;6128;59.340;18.040;2023-11-21T01:08:44;2.17;;;1.97;;
12129;SDS011;6128;59.340;18.040;2023-11-21T01:11:11;2.07;;;1.97;;
12129;SDS011;6128;59.340;18.040;2023-11-21T01:13:39;2.10;;;2.00;;
12129;SDS011;6128;59.340;18.040;2023-11-21T01:16:08;2.20;;;2.00;;
12129;SDS011;6128;59.340;18.040;2023-11-21T01:18:35;2.50;;;2.30;;
12129;SDS011;6128;59.340;18.040;2023-11-21T01:21:02;2.43;;;2.23;;
12129;SDS011;6128;59.340;18.040;2023-11-21T01:23:30;2.40;;;2.20;;
12129;SDS011;6128;59.340;18.040;2023-11-21T01:25:57;2.10;;;2.00;;
12129;SDS011;6128;59.340;18.040;2023-11-21T01:28:24;2.47;;;2.20;;
12129;SDS011;6128;59.340;18.040;2023-11-21T01:30:51;2.23;;;2.13;;
12129;SDS011;6128;59.340;18.040;2023-11-21T01:33:23;2.30;;;2.20;;
12129;SDS011;6128;59.340;18.040;2023-11-21T01:35:51;2.00;;;1.90;;
12129;SDS011;6128;59.340;18.040;2023-11-21T01:38:20;2.20;;;2.00;;
12129;SDS011;6128;59.340;18.040;2023-11-21T01:40:47;2.47;;;2.27;;
12129;SDS011;6128;59.340;18.040;2023-11-21T01:43:14;2.10;;;2.00;;
12129;SDS011;6128;59.340;18.040;2023-11-21T01:45:41;2.20;;;2.10;;
12129;SDS011;6128;59.340;18.040;2023-11-21T01:48:10;2.30;;;2.10;;
12129;SDS011;6128;59.340;18.040;2023-11-21T01:50:40;2.50;;;2.30;;
12129;SDS011;6128;59.340;18.040;2023-11-21T01:53:08;2.20;;;2.10;;
12129;SDS011;6128;59.340;18.040;2023-11-21T01:55:38;2.40;;;2.20;;
12129;SDS011;6128;59.340;18.040;2023-11-21T01:58:06;2.43;;;2.23;;
12129;SDS011;6128;59.340;18.040;2023-11-21T02:00:34;2.30;;;2.17;;
12129;SDS011;6128;59.340;18.040;2023-11-21T02:03:03;2.47;;;2.30;;
12129;SDS011;6128;59.340;18.040;2023-11-21T02:05:32;2.40;;;2.20;;
12129;SDS011;6128;59.340;18.040;2023-11-21T02:08:00;2.13;;;2.03;;
12129;SDS011;6128;59.340;18.040;2023-11-21T02:10:28;2.13;;;2.03;;
12129;SDS011;6128;59.340;18.040;2023-11-21T02:12:56;2.10;;;2.00;;
12129;SDS011;6128;59.340;18.040;2023-11-21T02:15:23;2.57;;;2.37;;
12129;SDS011;6128;59.340;18.040;2023-11-21T02:17:54;2.13;;;2.03;;
12129;SDS011;6128;59.340;18.040;2023-11-21T02:20:23;2.13;;;2.00;;
12129;SDS011;6128;59.340;18.040;2023-11-21T02:22:53;2.23;;;2.13;;
12129;SDS011;6128;59.340;18.040;2023-11-21T02:25:23;2.63;;;2.43;;
12129;SDS011;6128;59.340;18.040;2023-11-21T02:27:50;2.40;;;2.20;;
12129;SDS011;6128;59.340;18.040;2023-11-21T02:30:17;1.97;;;1.87;;
12129;SDS011;6128;59.340;18.040;2023-11-21T02:32:44;2.40;;;2.20;;
12129;SDS011;6128;59.340;18.040;2023-11-21T02:35:11;2.20;;;2.00;;
12129;SDS011;6128;59.340;18.040;2023-11-21T02:37:38;1.90;;;1.80;;
12129;SDS011;6128;59.340;18.040;2023-11-21T02:40:08;2.10;;;1.93;;
12129;SDS011;6128;59.340;18.040;2023-11-21T02:42:37;2.10;;;2.00;;
12129;SDS011;6128;59.340;18.040;2023-11-21T02:45:06;2.20;;;2.10;;
12129;SDS011;6128;59.340;18.040;2023-11-21T02:47:34;2.20;;;2.00;;
12129;SDS011;6128;59.340;18.040;2023-11-21T02:50:01;2.37;;;2.20;;
12129;SDS011;6128;59.340;18.040;2023-11-21T02:52:29;1.77;;;1.67;;
12129;SDS011;6128;59.340;18.040;2023-11-21T02:54:58;2.23;;;2.10;;
12129;SDS011;6128;59.340;18.040;2023-11-21T02:57:26;2.00;;;1.87;;
12129;SDS011;6128;59.340;18.040;2023-11-21T02:59:53;2.23;;;2.13;;
12129;SDS011;6128;59.340;18.040;2023-11-21T03:02:20;2.20;;;2.07;;
12129;SDS011;6128;59.340;18.040;2023-11-21T03:04:48;1.97;;;1.80;;
12129;SDS011;6128;59.340;18.040;2023-11-21T03:07:15;1.87;;;1.77;;
12129;SDS011;6128;59.340;18.040;2023-11-21T03:09:44;2.00;;;1.90;;
12129;SDS011;6128;59.340;18.040;2023-11-21T03:12:11;1.90;;;1.80;;
12129;SDS011;6128;59.340;18.040;2023-11-21T03:14:40;2.70;;;2.07;;
12129;SDS011;6128;59.340;18.040;2023-11-21T03:17:07;1.80;;;1.70;;
12129;SDS011;6128;59.340;18.040;2023-11-21T03:19:34;2.10;;;2.00;;
12129;SDS011;6128;59.340;18.040;2023-11-21T03:22:01;2.00;;;1.90;;
12129;SDS011;6128;59.340;18.040;2023-11-21T03:24:29;2.10;;;2.00;;
12129;SDS011;6128;59.340;18.040;2023-11-21T03:26:56;2.10;;;2.00;;
12129;SDS011;6128;59.340;18.040;2023-11-21T03:29:23;2.23;;;2.03;;
12129;SDS011;6128;59.340;18.040;2023-11-21T03:31:51;2.30;;;2.07;;
12129;SDS011;6128;59.340;18.040;2023-11-21T03:34:23;2.10;;;2.00;;
12129;SDS011;6128;59.340;18.040;2023-11-21T03:36:51;2.90;;;2.70;;
12129;SDS011;6128;59.340;18.040;2023-11-21T03:39:19;2.57;;;2.37;;
12129;SDS011;6128;59.340;18.040;2023-11-21T03:41:46;2.50;;;2.30;;
12129;SDS011;6128;59.340;18.040;2023-11-21T03:44:13;2.73;;;2.53;;
12129;SDS011;6128;59.340;18.040;2023-11-21T03:46:40;3.07;;;2.67;;
12129;SDS011;6128;59.340;18.040;2023-11-21T03:49:09;2.50;;;2.33;;
12129;SDS011;6128;59.340;18.040;2023-11-21T03:51:36;2.60;;;2.40;;
12129;SDS011;6128;59.340;18.040;2023-11-21T03:54:03;3.10;;;2.80;;
12129;SDS011;6128;59.340;18.040;2023-11-21T03:56:30;2.60;;;2.40;;
12129;SDS011;6128;59.340;18.040;2023-11-21T03:58:57;2.87;;;2.67;;
12129;SDS011;6128;59.340;18.040;2023-11-21T04:01:24;3.00;;;2.80;;
12129;SDS011;6128;59.340;18.040;2023-11-21T04:03:51;2.90;;;2.70;;
12129;SDS011;6128;59.340;18.040;2023-11-21T04:06:20;2.23;;;2.13;;
12129;SDS011;6128;59.340;18.040;2023-11-21T04:08:47;2.80;;;2.60;;
12129;SDS011;6128;59.340;18.040;2023-11-21T04:11:13;2.87;;;2.60;;
12129;SDS011;6128;59.340;18.040;2023-11-21T04:13:41;3.00;;;2.53;;
12129;SDS011;6128;59.340;18.040;2023-11-21T04:16:08;2.77;;;2.57;;
12129;SDS011;6128;59.340;18.040;2023-11-21T04:18:36;2.50;;;2.30;;
12129;SDS011;6128;59.340;18.040;2023-11-21T04:21:04;2.00;;;1.90;;
12129;SDS011;6128;59.340;18.040;2023-11-21T04:23:33;2.30;;;2.20;;
12129;SDS011;6128;59.340;18.040;2023-11-21T04:26:01;2.00;;;1.90;;
12129;SDS011;6128;59.340;18.040;2023-11-21T04:28:28;2.30;;;2.10;;
12129;SDS011;6128;59.340;18.040;2023-11-21T04:30:55;2.00;;;1.90;;
12129;SDS011;6128;59.340;18.040;2023-11-21T04:33:22;2.33;;;2.13;;
12129;SDS011;6128;59.340;18.040;2023-11-21T04:35:50;2.00;;;1.90;;
12129;SDS011;6128;59.340;18.040;2023-11-21T04:38:17;2.20;;;2.00;;
12129;SDS011;6128;59.340;18.040;2023-11-21T04:40:47;1.93;;;1.83;;
12129;SDS011;6128;59.340;18.040;2023-11-21T04:43:15;2.20;;;2.00;;
12129;SDS011;6128;59.340;18.040;2023-11-21T04:45:43;2.10;;;1.90;;
12129;SDS011;6128;59.340;18.040;2023-11-21T04:48:15;2.00;;;1.90;;
12129;SDS011;6128;59.340;18.040;2023-11-21T04:50:42;1.60;;;1.50;;
12129;SDS011;6128;59.340;18.040;2023-11-21T04:53:09;1.67;;;1.50;;
12129;SDS011;6128;59.340;18.040;2023-11-21T04:55:39;1.90;;;1.80;;
12129;SDS011;6128;59.340;18.040;2023-11-21T04:58:08;1.67;;;1.57;;
12129;SDS011;6128;59.340;18.040;2023-11-21T05:00:36;1.70;;;1.60;;
12129;SDS011;6128;59.340;18.040;2023-11-21T05:03:03;1.70;;;1.60;;
12129;SDS011;6128;59.340;18.040;2023-11-21T05:05:32;1.60;;;1.50;;
12129;SDS011;6128;59.340;18.040;2023-11-21T05:07:59;1.60;;;1.50;;
12129;SDS011;6128;59.340;18.040;2023-11-21T05:10:27;1.80;;;1.70;;
12129;SDS011;6128;59.340;18.040;2023-11-21T05:12:55;1.60;;;1.50;;
12129;SDS011;6128;59.340;18.040;2023-11-21T05:15:24;1.60;;;1.50;;
12129;SDS011;6128;59.340;18.040;2023-11-21T05:17:52;1.60;;;1.50;;
12129;SDS011;6128;59.340;18.040;2023-11-21T05:20:20;1.90;;;1.80;;
12129;SDS011;6128;59.340;18.040;2023-11-21T05:22:48;1.30;;;1.27;;
12129;SDS011;6128;59.340;18.040;2023-11-21T05:25:16;1.60;;;1.50;;
12129;SDS011;6128;59.340;18.040;2023-11-21T05:27:44;1.90;;;1.70;;
12129;SDS011;6128;59.340;18.040;2023-11-21T05:30:11;1.70;;;1.60;;
12129;SDS011;6128;59.340;18.040;2023-11-21T05:32:41;2.10;;;2.00;;
12129;SDS011;6128;59.340;18.040;2023-11-21T05:35:08;1.60;;;1.50;;
12129;SDS011;6128;59.340;18.040;2023-11-21T05:37:39;1.70;;;1.60;;
12129;SDS011;6128;59.340;18.040;2023-11-21T05:40:06;1.63;;;1.53;;
12129;SDS011;6128;59.340;18.040;2023-11-21T05:42:35;1.80;;;1.70;;
12129;SDS011;6128;59.340;18.040;2023-11-21T05:45:03;1.83;;;1.73;;
12129;SDS011;6128;59.340;18.040;2023-11-21T05:47:35;1.73;;;1.63;;
12129;SDS011;6128;59.340;18.040;2023-11-21T05:50:06;1.50;;;1.40;;
12129;SDS011;6128;59.340;18.040;2023-11-21T05:52:37;1.50;;;1.40;;
12129;SDS011;6128;59.340;18.040;2023-11-21T05:55:05;1.70;;;1.60;;
12129;SDS011;6128;59.340;18.040;2023-11-21T05:57:33;1.40;;;1.30;;
12129;SDS011;6128;59.340;18.040;2023-11-21T06:00:03;1.60;;;1.50;;
12129;SDS011;6128;59.340;18.040;2023-11-21T06:02:36;1.40;;;1.30;;
12129;SDS011;6128;59.340;18.040;2023-11-21T06:05:06;1.73;;;1.63;;
12129;SDS011;6128;59.340;18.040;2023-11-21T06:07:34;1.60;;;1.50;;
12129;SDS011;6128;59.340;18.040;2023-11-21T06:10:01;1.37;;;1.27;;
12129;SDS011;6128;59.340;18.040;2023-11-21T06:12:31;1.13;;;1.07;;
12129;SDS011;6128;59.340;18.040;2023-11-21T06:15:00;1.77;;;1.40;;
12129;SDS011;6128;59.340;18.040;2023-11-21T06:17:30;1.63;;;1.53;;
12129;SDS011;6128;59.340;18.040;2023-11-21T06:19:57;1.30;;;1.20;;
12129;SDS011;6128;59.340;18.040;2023-11-21T06:22:27;1.57;;;1.10;;
12129;SDS011;6128;59.340;18.040;2023-11-21T06:24:55;1.57;;;1.47;;
12129;SDS011;6128;59.340;18.040;2023-11-21T06:27:23;1.50;;;1.40;;
12129;SDS011;6128;59.340;18.040;2023-11-21T06:29:50;1.43;;;1.33;;
12129;SDS011;6128;59.340;18.040;2023-11-21T06:32:17;1.00;;;1.00;;
12129;SDS011;6128;59.340;18.040;2023-11-21T06:34:45;1.57;;;1.33;;
12129;SDS011;6128;59.340;18.040;2023-11-21T06:37:12;1.40;;;1.30;;
12129;SDS011;6128;59.340;18.040;2023-11-21T06:39:41;1.60;;;1.50;;
12129;SDS011;6128;59.340;18.040;2023-11-21T06:42:08;2.03;;;1.50;;
12129;SDS011;6128;59.340;18.040;2023-11-21T06:44:36;1.43;;;1.33;;
12129;SDS011;6128;59.340;18.040;2023-11-21T06:47:03;1.67;;;1.37;;
12129;SDS011;6128;59.340;18.040;2023-11-21T06:49:30;1.67;;;1.57;;
12129;SDS011;6128;59.340;18.040;2023-11-21T06:51:57;1.70;;;1.60;;
12129;SDS011;6128;59.340;18.040;2023-11-21T06:54:24;2.03;;;1.83;;
12129;SDS011;6128;59.340;18.040;2023-11-21T06:56:54;1.77;;;1.67;;
12129;SDS011;6128;59.340;18.040;2023-11-21T06:59:21;1.73;;;1.63;;
12129;SDS011;6128;59.340;18.040;2023-11-21T07:01:48;1.67;;;1.57;;
12129;SDS011;6128;59.340;18.040;2023-11-21T07:04:16;1.63;;;1.53;;
12129;SDS011;6128;59.340;18.040;2023-11-21T07:06:43;1.50;;;1.40;;
12129;SDS011;6128;59.340;18.040;2023-11-21T07:09:10;1.77;;;1.67;;
12129;SDS011;6128;59.340;18.040;2023-11-21T07:11:38;1.73;;;1.63;;
12129;SDS011;6128;59.340;18.040;2023-11-21T07:14:07;1.70;;;1.50;;
12129;SDS011;6128;59.340;18.040;2023-11-21T07:16:34;3.47;;;1.87;;
12129;SDS011;6128;59.340;18.040;2023-11-21T07:19:02;1.23;;;1.13;;
12129;SDS011;6128;59.340;18.040;2023-11-21T07:21:31;1.67;;;1.33;;
12129;SDS011;6128;59.340;18.040;2023-11-21T07:23:58;1.50;;;1.40;;
12129;SDS011;6128;59.340;18.040;2023-11-21T07:26:26;1.57;;;1.47;;
12129;SDS011;6128;59.340;18.040;2023-11-21T07:28:53;2.10;;;1.30;;
12129;SDS011;6128;59.340;18.040;2023-11-21T07:31:22;1.60;;;1.50;;
12129;SDS011;6128;59.340;18.040;2023-11-21T07:33:50;1.47;;;1.37;;
12129;SDS011;6128;59.340;18.040;2023-11-21T07:36:17;1.63;;;1.53;;
12129;SDS011;6128;59.340;18.040;2023-11-21T07:38:46;2.00;;;1.40;;
12129;SDS011;6128;59.340;18.040;2023-11-21T07:41:13;2.50;;;1.50;;
12129;SDS011;6128;59.340;18.040;2023-11-21T07:43:41;1.90;;;1.80;;
12129;SDS011;6128;59.340;18.040;2023-11-21T07:46:08;2.47;;;1.87;;
12129;SDS011;6128;59.340;18.040;2023-11-21T07:48:39;1.70;;;1.60;;
12129;SDS011;6128;59.340;18.040;2023-11-21T07:51:07;1.57;;;1.47;;
12129;SDS011;6128;59.340;18.040;2023-11-21T07:53:34;2.50;;;1.70;;
12129;SDS011;6128;59.340;18.040;2023-11-21T07:56:02;1.70;;;1.60;;
12129;SDS011;6128;59.340;18.040;2023-11-21T07:58:30;1.47;;;1.37;;
12129;SDS011;6128;59.340;18.040;2023-11-21T08:00:58;1.60;;;1.50;;
12129;SDS011;6128;59.340;18.040;2023-11-21T08:03:25;1.57;;;1.47;;
12129;SDS011;6128;59.340;18.040;2023-11-21T08:05:55;1.83;;;1.73;;
12129;SDS011;6128;59.340;18.040;2023-11-21T08:08:23;1.70;;;1.53;;
12129;SDS011;6128;59.340;18.040;2023-11-21T08:10:52;1.80;;;1.70;;
12129;SDS011;6128;59.340;18.040;2023-11-21T08:13:22;1.83;;;1.70;;
12129;SDS011;6128;59.340;18.040;2023-11-21T08:15:49;1.90;;;1.80;;
12129;SDS011;6128;59.340;18.040;2023-11-21T08:18:17;1.63;;;1.53;;
12129;SDS011;6128;59.340;18.040;2023-11-21T08:20:44;1.50;;;1.40;;
12129;SDS011;6128;59.340;18.040;2023-11-21T08:23:14;1.40;;;1.30;;
12129;SDS011;6128;59.340;18.040;2023-11-21T08:25:42;1.50;;;1.40;;
12129;SDS011;6128;59.340;18.040;2023-11-21T08:28:10;2.50;;;1.77;;
12129;SDS011;6128;59.340;18.040;2023-11-21T08:30:38;1.57;;;1.47;;
12129;SDS011;6128;59.340;18.040;2023-11-21T08:33:06;3.27;;;2.00;;
12129;SDS011;6128;59.340;18.040;2023-11-21T08:35:33;1.63;;;1.53;;
12129;SDS011;6128;59.340;18.040;2023-11-21T08:38:01;1.40;;;1.30;;
12129;SDS011;6128;59.340;18.040;2023-11-21T08:40:29;2.17;;;1.47;;
12129;SDS011;6128;59.340;18.040;2023-11-21T08:42:57;4.20;;;2.07;;
12129;SDS011;6128;59.340;18.040;2023-11-21T08:45:24;1.73;;;1.63;;
12129;SDS011;6128;59.340;18.040;2023-11-21T08:47:52;3.27;;;1.80;;
12129;SDS011;6128;59.340;18.040;2023-11-21T08:50:18;2.30;;;1.70;;
12129;SDS011;6128;59.340;18.040;2023-11-21T08:52:45;1.87;;;1.77;;
12129;SDS011;6128;59.340;18.040;2023-11-21T08:55:12;2.53;;;1.70;;
12129;SDS011;6128;59.340;18.040;2023-11-21T08:57:41;1.63;;;1.53;;
12129;SDS011;6128;59.340;18.040;2023-11-21T09:00:10;1.67;;;1.57;;
12129;SDS011;6128;59.340;18.040;2023-11-21T09:02:42;2.77;;;1.77;;
12129;SDS011;6128;59.340;18.040;2023-11-21T09:05:10;1.50;;;1.40;;
12129;SDS011;6128;59.340;18.040;2023-11-21T09:07:38;1.37;;;1.27;;
12129;SDS011;6128;59.340;18.040;2023-11-21T09:10:07;4.63;;;1.50;;
12129;SDS011;6128;59.340;18.040;2023-11-21T09:12:35;1.73;;;1.63;;
12129;SDS011;6128;59.340;18.040;2023-11-21T09:15:05;1.43;;;1.33;;
12129;SDS011;6128;59.340;18.040;2023-11-21T09:17:35;0.90;;;0.90;;
12129;SDS011;6128;59.340;18.040;2023-11-21T09:20:03;0.90;;;0.90;;
12129;SDS011;6128;59.340;18.040;2023-11-21T09:22:31;1.00;;;0.90;;
12129;SDS011;6128;59.340;18.040;2023-11-21T09:24:58;1.37;;;1.27;;
12129;SDS011;6128;59.340;18.040;2023-11-21T09:27:25;1.73;;;1.30;;
12129;SDS011;6128;59.340;18.040;2023-11-21T09:29:52;0.93;;;0.93;;
12129;SDS011;6128;59.340;18.040;2023-11-21T09:32:21;1.50;;;1.40;;
12129;SDS011;6128;59.340;18.040;2023-11-21T09:34:48;1.20;;;1.10;;
12129;SDS011;6128;59.340;18.040;2023-11-21T09:37:15;1.10;;;1.00;;
12129;SDS011;6128;59.340;18.040;2023-11-21T09:39:44;1.13;;;1.03;;
12129;SDS011;6128;59.340;18.040;2023-11-21T09:42:13;1.40;;;1.30;;
12129;SDS011;6128;59.340;18.040;2023-11-21T09:44:45;1.33;;;1.23;;
12129;SDS011;6128;59.340;18.040;2023-11-21T09:47:18;1.53;;;1.43;;
12129;SDS011;6128;59.340;18.040;2023-11-21T09:49:48;1.57;;;1.17;;
12129;SDS011;6128;59.340;18.040;2023-11-21T09:52:17;1.43;;;1.33;;
12129;SDS011;6128;59.340;18.040;2023-11-21T09:54:50;1.63;;;1.53;;
12129;SDS011;6128;59.340;18.040;2023-11-21T09:57:19;1.50;;;1.30;;
12129;SDS011;6128;59.340;18.040;2023-11-21T09:59:48;2.80;;;1.60;;
12129;SDS011;6128;59.340;18.040;2023-11-21T10:02:24;1.53;;;1.37;;
12129;SDS011;6128;59.340;18.040;2023-11-21T10:04:55;2.10;;;1.57;;
12129;SDS011;6128;59.340;18.040;2023-11-21T10:07:23;1.80;;;1.40;;
12129;SDS011;6128;59.340;18.040;2023-11-21T10:09:50;2.13;;;1.60;;
12129;SDS011;6128;59.340;18.040;2023-11-21T10:12:19;1.53;;;1.43;;
12129;SDS011;6128;59.340;18.040;2023-11-21T10:14:47;2.00;;;1.63;;
12129;SDS011;6128;59.340;18.040;2023-11-21T10:17:18;1.77;;;1.60;;
12129;SDS011;6128;59.340;18.040;2023-11-21T10:19:46;2.70;;;1.73;;
12129;SDS011;6128;59.340;18.040;2023-11-21T10:22:15;2.23;;;1.80;;
12129;SDS011;6128;59.340;18.040;2023-11-21T10:24:44;1.57;;;1.47;;
12129;SDS011;6128;59.340;18.040;2023-11-21T10:27:12;2.10;;;1.37;;
12129;SDS011;6128;59.340;18.040;2023-11-21T10:29:39;2.27;;;1.47;;
12129;SDS011;6128;59.340;18.040;2023-11-21T10:32:07;3.17;;;1.67;;
12129;SDS011;6128;59.340;18.040;2023-11-21T10:34:35;1.90;;;1.47;;
12129;SDS011;6128;59.340;18.040;2023-11-21T10:37:10;1.83;;;1.73;;
12129;SDS011;6128;59.340;18.040;2023-11-21T10:39:39;1.60;;;1.50;;
12129;SDS011;6128;59.340;18.040;2023-11-21T10:42:09;3.20;;;1.80;;
12129;SDS011;6128;59.340;18.040;2023-11-21T10:44:36;1.63;;;1.53;;
12129;SDS011;6128;59.340;18.040;2023-11-21T10:47:03;1.73;;;1.63;;
12129;SDS011;6128;59.340;18.040;2023-11-21T10:49:30;1.70;;;1.60;;
12129;SDS011;6128;59.340;18.040;2023-11-21T10:51:57;1.70;;;1.60;;
12129;SDS011;6128;59.340;18.040;2023-11-21T10:54:25;1.97;;;1.87;;
12129;SDS011;6128;59.340;18.040;2023-11-21T10:56:56;2.20;;;2.00;;
12129;SDS011;6128;59.340;18.040;2023-11-21T10:59:25;2.30;;;1.87;;
12129;SDS011;6128;59.340;18.040;2023-11-21T11:01:57;2.93;;;1.80;;
12129;SDS011;6128;59.340;18.040;2023-11-21T11:04:27;1.80;;;1.60;;
12129;SDS011;6128;59.340;18.040;2023-11-21T11:06:54;1.93;;;1.83;;
12129;SDS011;6128;59.340;18.040;2023-11-21T11:09:23;2.47;;;1.80;;
12129;SDS011;6128;59.340;18.040;2023-11-21T11:11:51;1.70;;;1.60;;
12129;SDS011;6128;59.340;18.040;2023-11-21T11:14:20;1.60;;;1.50;;
12129;SDS011;6128;59.340;18.040;2023-11-21T11:16:52;2.00;;;1.70;;
12129;SDS011;6128;59.340;18.040;2023-11-21T11:19:21;2.60;;;1.77;;
12129;SDS011;6128;59.340;18.040;2023-11-21T11:21:50;2.43;;;1.63;;
12129;SDS011;6128;59.340;18.040;2023-11-21T11:24:29;1.40;;;1.30;;
12129;SDS011;6128;59.340;18.040;2023-11-21T11:27:09;1.70;;;1.60;;
12129;SDS011;6128;59.340;18.040;2023-11-21T11:29:50;1.50;;;1.40;;
12129;SDS011;6128;59.340;18.040;2023-11-21T11:32:30;1.77;;;1.67;;
12129;SDS011;6128;59.340;18.040;2023-11-21T11:35:06;1.70;;;1.60;;
12129;SDS011;6128;59.340;18.040;2023-11-21T11:37:39;1.93;;;1.47;;
12129;SDS011;6128;59.340;18.040;2023-11-21T11:40:07;2.13;;;1.50;;
12129;SDS011;6128;59.340;18.040;2023-11-21T11:42:37;1.40;;;1.30;;
12129;SDS011;6128;59.340;18.040;2023-11-21T11:45:14;1.70;;;1.60;;
12129;SDS011;6128;59.340;18.040;2023-11-21T11:47:44;2.23;;;1.50;;
12129;SDS011;6128;59.340;18.040;2023-11-21T11:50:14;1.70;;;1.60;;
12129;SDS011;6128;59.340;18.040;2023-11-21T11:52:45;2.37;;;1.47;;
12129;SDS011;6128;59.340;18.040;2023-11-21T11:55:14;2.30;;;1.50;;
12129;SDS011;6128;59.340;18.040;2023-11-21T11:57:44;1.67;;;1.40;;
12129;SDS011;6128;59.340;18.040;2023-11-21T12:00:14;1.57;;;1.47;;
12129;SDS011;6128;59.340;18.040;2023-11-21T12:02:46;1.70;;;1.60;;
12129;SDS011;6128;59.340;18.040;2023-11-21T12:05:14;1.30;;;1.20;;
12129;SDS011;6128;59.340;18.040;2023-11-21T12:07:46;1.77;;;1.67;;
12129;SDS011;6128;59.340;18.040;2023-11-21T12:10:19;1.30;;;1.20;;
12129;SDS011;6128;59.340;18.040;2023-11-21T12:12:48;1.97;;;1.23;;
12129;SDS011;6128;59.340;18.040;2023-11-21T12:15:18;4.07;;;1.33;;
12129;SDS011;6128;59.340;18.040;2023-11-21T12:17:46;0.80;;;0.80;;
12129;SDS011;6128;59.340;18.040;2023-11-21T12:20:15;1.27;;;0.90;;
12129;SDS011;6128;59.340;18.040;2023-11-21T12:22:44;1.20;;;1.10;;
12129;SDS011;6128;59.340;18.040;2023-11-21T12:25:14;1.00;;;0.90;;
12129;SDS011;6128;59.340;18.040;2023-11-21T12:27:44;1.10;;;1.00;;
12129;SDS011;6128;59.340;18.040;2023-11-21T12:30:12;1.17;;;1.07;;
12129;SDS011;6128;59.340;18.040;2023-11-21T12:32:42;0.83;;;0.73;;
12129;SDS011;6128;59.340;18.040;2023-11-21T12:35:11;1.30;;;1.00;;
12129;SDS011;6128;59.340;18.040;2023-11-21T12:37:39;1.10;;;0.97;;
12129;SDS011;6128;59.340;18.040;2023-11-21T12:40:09;0.90;;;0.80;;
12129;SDS011;6128;59.340;18.040;2023-11-21T12:42:40;1.13;;;1.03;;
12129;SDS011;6128;59.340;18.040;2023-11-21T12:45:09;1.00;;;1.00;;
12129;SDS011;6128;59.340;18.040;2023-11-21T12:47:42;1.80;;;1.00;;
12129;SDS011;6128;59.340;18.040;2023-11-21T12:50:10;0.70;;;0.60;;
12129;SDS011;6128;59.340;18.040;2023-11-21T12:52:40;1.30;;;0.90;;
12129;SDS011;6128;59.340;18.040;2023-11-21T12:55:09;0.80;;;0.80;;
12129;SDS011;6128;59.340;18.040;2023-11-21T12:57:40;1.27;;;0.83;;
12129;SDS011;6128;59.340;18.040;2023-11-21T13:00:10;1.47;;;1.10;;
12129;SDS011;6128;59.340;18.040;2023-11-21T13:02:52;1.33;;;1.20;;
12129;SDS011;6128;59.340;18.040;2023-11-21T13:05:28;1.10;;;1.00;;
12129;SDS011;6128;59.340;18.040;2023-11-21T13:07:57;4.50;;;1.20;;
12129;SDS011;6128;59.340;18.040;2023-11-21T13:10:27;1.13;;;1.03;;
12129;SDS011;6128;59.340;18.040;2023-11-21T13:12:56;0.97;;;0.93;;
12129;SDS011;6128;59.340;18.040;2023-11-21T13:15:25;3.27;;;1.00;;
12129;SDS011;6128;59.340;18.040;2023-11-21T13:17:58;1.87;;;1.00;;
12129;SDS011;6128;59.340;18.040;2023-11-21T13:20:26;0.90;;;0.77;;
12129;SDS011;6128;59.340;18.040;2023-11-21T13:23:08;1.87;;;1.20;;
12129;SDS011;6128;59.340;18.040;2023-11-21T13:25:41;1.47;;;0.90;;
12129;SDS011;6128;59.340;18.040;2023-11-21T13:28:10;0.80;;;0.73;;
12129;SDS011;6128;59.340;18.040;2023-11-21T13:30:40;1.43;;;0.70;;
12129;SDS011;6128;59.340;18.040;2023-11-21T13:33:11;0.60;;;0.60;;
12129;SDS011;6128;59.340;18.040;2023-11-21T13:35:42;1.43;;;0.87;;
12129;SDS011;6128;59.340;18.040;2023-11-21T13:38:13;0.87;;;0.87;;
12129;SDS011;6128;59.340;18.040;2023-11-21T13:40:42;0.80;;;0.70;;
12129;SDS011;6128;59.340;18.040;2023-11-21T13:43:15;1.57;;;0.80;;
12129;SDS011;6128;59.340;18.040;2023-11-21T13:45:46;1.17;;;0.90;;
12129;SDS011;6128;59.340;18.040;2023-11-21T13:48:17;1.33;;;0.83;;
12129;SDS011;6128;59.340;18.040;2023-11-21T13:50:53;1.53;;;0.70;;
12129;SDS011;6128;59.340;18.040;2023-11-21T13:53:24;0.77;;;0.70;;
12129;SDS011;6128;59.340;18.040;2023-11-21T13:55:51;0.73;;;0.73;;
12129;SDS011;6128;59.340;18.040;2023-11-21T13:58:19;1.23;;;0.63;;
12129;SDS011;6128;59.340;18.040;2023-11-21T14:01:00;0.80;;;0.80;;
12129;SDS011;6128;59.340;18.040;2023-11-21T14:03:32;1.03;;;0.93;;
12129;SDS011;6128;59.340;18.040;2023-11-21T14:06:08;1.03;;;1.03;;
12129;SDS011;6128;59.340;18.040;2023-11-21T14:08:39;1.00;;;0.87;;
12129;SDS011;6128;59.340;18.040;2023-11-21T14:11:06;1.00;;;1.00;;
12129;SDS011;6128;59.340;18.040;2023-11-21T14:13:36;2.27;;;1.10;;
12129;SDS011;6128;59.340;18.040;2023-11-21T14:16:04;1.53;;;1.43;;
12129;SDS011;6128;59.340;18.040;2023-11-21T14:18:36;1.20;;;1.10;;
12129;SDS011;6128;59.340;18.040;2023-11-21T14:21:08;1.20;;;1.10;;
12129;SDS011;6128;59.340;18.040;2023-11-21T14:23:36;4.20;;;1.30;;
12129;SDS011;6128;59.340;18.040;2023-11-21T14:26:03;1.23;;;1.13;;
12129;SDS011;6128;59.340;18.040;2023-11-21T14:28:32;1.60;;;1.40;;
12129;SDS011;6128;59.340;18.040;2023-11-21T14:31:00;1.30;;;1.20;;
12129;SDS011;6128;59.340;18.040;2023-11-21T14:33:27;2.10;;;1.50;;
12129;SDS011;6128;59.340;18.040;2023-11-21T14:35:55;2.30;;;1.57;;
12129;SDS011;6128;59.340;18.040;2023-11-21T14:38:22;2.33;;;1.13;;
12129;SDS011;6128;59.340;18.040;2023-11-21T14:40:49;2.13;;;1.40;;
12129;SDS011;6128;59.340;18.040;2023-11-21T14:43:16;2.73;;;1.10;;
12129;SDS011;6128;59.340;18.040;2023-11-21T14:45:45;1.87;;;1.10;;
12129;SDS011;6128;59.340;18.040;2023-11-21T14:48:13;1.63;;;1.53;;
12129;SDS011;6128;59.340;18.040;2023-11-21T14:50:41;2.17;;;1.53;;
12129;SDS011;6128;59.340;18.040;2023-11-21T14:53:24;1.60;;;1.23;;
12129;SDS011;6128;59.340;18.040;2023-11-21T14:56:08;1.93;;;1.63;;
12129;SDS011;6128;59.340;18.040;2023-11-21T14:58:35;4.40;;;3.90;;